Sawyer District, Connecticut
Current Conditions -  °F | °C
As of 4:52 PM on Sunday 25 Jan 2015 (Local Time) from KIJD Reporting Station
Clear Clear  
Wind Chill: 24°   Ceiling: Unl
Heat Index: 31°   Visibility: 10mi
Dew Point:   Wind: 7mph
Humidity: 33%   Direction: 330°NNW
Pressure: 29.81"   Gusts: NA
Location:  41.91°N, 71.8739°W
Report Text: KIJD 252152Z AUTO 33006KT 10SM CLR M01/M15 A2981 RMK AO2 SLP098 T10061150 $
Loading
Personal Weather Stations






























Interactive Weather Map New forecast layout! Learn more

10-Day Weather Forecast

Advertisements
Track Severe Weather on mobile